Citta Di Savona — IMDS — position and weather

sailwx.info

Track history (hours):
 
Tides and Currents Weather Stations Pressure Air Temp Water Temp Dewpoint Dewpoint Depression Visibility Wind Speed Wind Dir Waves Ship Positions

Citta Di Savona

Last reported at 2016-Apr-29 08:33 UTC. Time now 2016-Apr-29 19:48 UTC.
Position N 44°05' E 009°53'.

Length 31 m; draft 4.2 m.

Type: Tug. MMSI: 247402000.

Date/timePositionNaut miles runAvg speedWind from/ knotsBaromVisibWave heightAir tempDewpointWater temp
2016-Apr-29 08:33N 44°05' E 009°53'5 4.9
2016-Apr-29 07:33N 44°02' E 009°48'1110.9
2016-Apr-29 06:33N 44°08' E 009°36'1010.3
2016-Apr-29 05:33N 44°13' E 009°24'9 9.5
2016-Apr-29 04:33N 44°16' E 009°11'1010.0
2016-Apr-29 03:33N 44°20' E 008°58'1010.2
2016-Apr-29 02:33N 44°20' E 008°44'9 9.0
2016-Apr-29 01:33N 44°19' E 008°31'2 1.5
2016-Apr-29 00:33N 44°18' E 008°29'0 0.0
2016-Apr-28 23:33N 44°18' E 008°29'0 0.0
2016-Apr-28 21:33N 44°18' E 008°29'0 0.0
2016-Apr-28 20:33N 44°18' E 008°29'0 0.0
2016-Apr-28 19:33N 44°18' E 008°29'0 0.0
2016-Apr-28 18:33N 44°18' E 008°29'0 0.0
2016-Apr-28 17:33N 44°18' E 008°29'0 0.0
2016-Apr-28 16:33N 44°18' E 008°29'1 0.7
2016-Apr-28 15:33N 44°19' E 008°30'2 2.5
2016-Apr-28 14:33N 44°17' E 008°28'2 1.7
2016-Apr-28 13:30N 44°18' E 008°29'0 0.0
2016-Apr-28 12:30N 44°18' E 008°29'0 0.0
2016-Apr-28 11:30N 44°18' E 008°29'0 0.0
2016-Apr-28 10:30N 44°18' E 008°29'0 0.0
2016-Apr-28 09:30N 44°18' E 008°29'0 0.0
2016-Apr-28 07:17N 44°19' E 008°29'2 1.3
2016-Apr-28 05:29N 44°16' E 008°28'3 2.9
2016-Apr-28 04:34N 44°18' E 008°30'0 0.1
2016-Apr-27 22:31N 44°19' E 008°30'0 0.0
2016-Apr-27 04:27N 44°19' E 008°30'0 0.0
2016-Apr-26 16:17N 44°19' E 008°30'0 0.2
2016-Apr-26 15:10N 44°19' E 008°29'0 0.1
2016-Apr-26 12:23N 44°19' E 008°30'0 0.0
2016-Apr-25 07:26N 44°19' E 008°29'1 0.4
2016-Apr-25 04:33N 44°17' E 008°29'1 0.0
2016-Apr-23 11:29N 44°19' E 008°30'0 0.0
2016-Apr-22 19:07N 44°19' E 008°30'0 0.1
2016-Apr-22 15:33N 44°19' E 008°30'0 0.0
2016-Apr-22 14:27N 44°19' E 008°30'3 0.4
2016-Apr-22 06:24N 44°16' E 008°28'0 0.5
2016-Apr-22 05:31N 44°16' E 008°28'3 2.9
2016-Apr-22 04:28N 44°19' E 008°30'1 0.0
2016-Apr-20 15:23N 44°18' E 008°29'0 0.5
2016-Apr-20 14:31N 44°19' E 008°30'0 0.1
2016-Apr-20 13:33N 44°19' E 008°30'0 0.1
2016-Apr-20 09:14N 44°18' E 008°29'  
Track history (hours):
 
Tides and Currents Weather Stations Pressure Air Temp Water Temp Dewpoint Dewpoint Depression Visibility Wind Speed Wind Dir Waves Ship Positions

Citta Di Savona

Last reported at 2016-Apr-29 08:33 UTC. Time now 2016-Apr-29 19:48 UTC.
Position N 44°05' E 009°53'.

Length 31 m; draft 4.2 m.

Type: Tug. MMSI: 247402000.

Date/timePositionNaut miles runAvg speedWind from/ knotsBaromVisibWave heightAir tempDewpointWater temp
2016-Apr-29 08:33N 44°05' E 009°53'5 4.9
2016-Apr-29 07:33N 44°02' E 009°48'1110.9
2016-Apr-29 06:33N 44°08' E 009°36'1010.3
2016-Apr-29 05:33N 44°13' E 009°24'9 9.5
2016-Apr-29 04:33N 44°16' E 009°11'1010.0
2016-Apr-29 03:33N 44°20' E 008°58'1010.2
2016-Apr-29 02:33N 44°20' E 008°44'9 9.0
2016-Apr-29 01:33N 44°19' E 008°31'2 1.5
2016-Apr-29 00:33N 44°18' E 008°29'0 0.0
2016-Apr-28 23:33N 44°18' E 008°29'0 0.0
2016-Apr-28 21:33N 44°18' E 008°29'0 0.0
2016-Apr-28 20:33N 44°18' E 008°29'0 0.0
2016-Apr-28 19:33N 44°18' E 008°29'0 0.0
2016-Apr-28 18:33N 44°18' E 008°29'0 0.0
2016-Apr-28 17:33N 44°18' E 008°29'0 0.0
2016-Apr-28 16:33N 44°18' E 008°29'1 0.7
2016-Apr-28 15:33N 44°19' E 008°30'2 2.5
2016-Apr-28 14:33N 44°17' E 008°28'2 1.7
2016-Apr-28 13:30N 44°18' E 008°29'0 0.0
2016-Apr-28 12:30N 44°18' E 008°29'0 0.0
2016-Apr-28 11:30N 44°18' E 008°29'0 0.0
2016-Apr-28 10:30N 44°18' E 008°29'0 0.0
2016-Apr-28 09:30N 44°18' E 008°29'0 0.0
2016-Apr-28 07:17N 44°19' E 008°29'2 1.3
2016-Apr-28 05:29N 44°16' E 008°28'3 2.9
2016-Apr-28 04:34N 44°18' E 008°30'0 0.1
2016-Apr-27 22:31N 44°19' E 008°30'0 0.0
2016-Apr-27 04:27N 44°19' E 008°30'0 0.0
2016-Apr-26 16:17N 44°19' E 008°30'0 0.2
2016-Apr-26 15:10N 44°19' E 008°29'0 0.1
2016-Apr-26 12:23N 44°19' E 008°30'0 0.0
2016-Apr-25 07:26N 44°19' E 008°29'1 0.4
2016-Apr-25 04:33N 44°17' E 008°29'1 0.0
2016-Apr-23 11:29N 44°19' E 008°30'0 0.0
2016-Apr-22 19:07N 44°19' E 008°30'0 0.1
2016-Apr-22 15:33N 44°19' E 008°30'0 0.0
2016-Apr-22 14:27N 44°19' E 008°30'3 0.4
2016-Apr-22 06:24N 44°16' E 008°28'0 0.5
2016-Apr-22 05:31N 44°16' E 008°28'3 2.9
2016-Apr-22 04:28N 44°19' E 008°30'1 0.0
2016-Apr-20 15:23N 44°18' E 008°29'0 0.5
2016-Apr-20 14:31N 44°19' E 008°30'0 0.1
2016-Apr-20 13:33N 44°19' E 008°30'0 0.1
2016-Apr-20 09:14N 44°18' E 008°29'  

Dump ship's entire track history